Time;durP1;ratioP1;P1;durP2;ratioP2;P2;SDS_P1;SDS_P2;PMS_P1;PMS_P2;Temp;Humidity;BMP_temperature;BMP_pressure;BME280_temperature;BME280_humidity;BME280_pressure;Samples;Min_cycle;Max_cycle;Signal;HPM_P1;HPM_P2
2022/09/03 00:02:44;;;;;;;3.70;3.17;;;;;;;;;;5035871;28;20136;-63
2022/09/03 00:05:10;;;;;;;4.80;3.42;;;;;;;;;;5035414;28;20091;-62
2022/09/03 00:07:56;;;;;;;3.70;3.40;;;;;;;;;;5035322;28;20076;-64
2022/09/03 00:10:26;;;;;;;3.67;3.22;;;;;;;;;;5034462;28;20111;-64
2022/09/03 00:12:53;;;;;;;4.00;3.67;;;;;;;;;;5035014;28;20512;-63
2022/09/03 00:15:19;;;;;;;3.80;3.50;;;;;;;;;;5033976;28;20035;-63
2022/09/03 00:17:47;;;;;;;4.90;3.40;;;;;;;;;;5035804;28;20037;-63
2022/09/03 00:20:16;;;;;;;3.35;3.05;;;;;;;;;;5030509;28;20471;-63
2022/09/03 00:22:49;;;;;;;3.60;3.38;;;;;;;;;;5031797;28;20141;-62
2022/09/03 00:25:32;;;;;;;3.33;3.05;;;;;;;;;;5035322;28;20467;-63
2022/09/03 00:28:00;;;;;;;4.20;3.90;;;;;;;;;;5033452;28;20053;-63
2022/09/03 00:30:26;;;;;;;3.17;2.97;;;;;;;;;;5034654;28;20018;-63
2022/09/03 00:33:12;;;;;;;3.67;3.35;;;;;;;;;;5036524;28;20403;-63
2022/09/03 00:35:38;;;;;;;4.07;3.67;;;;;;;;;;5036078;28;20376;-63
2022/09/03 00:38:03;;;;;;;6.38;3.58;;;;;;;;;;5036130;28;20112;-67
2022/09/03 00:40:46;;;;;;;4.35;3.95;;;;;;;;;;5034630;28;20601;-62
2022/09/03 00:43:18;;;;;;;4.20;3.90;;;;;;;;;;5034540;28;20509;-63
2022/09/03 00:45:51;;;;;;;3.80;3.40;;;;;;;;;;5034799;28;20021;-63
2022/09/03 00:48:16;;;;;;;4.85;3.42;;;;;;;;;;5034001;28;20025;-64
2022/09/03 00:50:54;;;;;;;3.40;3.13;;;;;;;;;;5035564;28;20399;-63
2022/09/03 00:53:31;;;;;;;6.95;3.40;;;;;;;;;;5037183;28;20033;-63
2022/09/03 00:56:31;;;;;;;3.38;3.15;;;;;;;;;;5031324;28;20056;-62
2022/09/03 00:59:06;;;;;;;3.90;3.60;;;;;;;;;;4944830;28;20463;-63
2022/09/03 01:01:48;;;;;;;3.27;3.00;;;;;;;;;;4938757;29;20150;-63
2022/09/03 01:04:20;;;;;;;3.80;3.53;;;;;;;;;;4938974;29;20573;-63
2022/09/03 01:06:45;;;;;;;3.67;3.35;;;;;;;;;;4943507;29;20046;-63
2022/09/03 01:09:10;;;;;;;4.45;3.20;;;;;;;;;;4944012;29;20930;-63
2022/09/03 01:11:36;;;;;;;8.73;3.70;;;;;;;;;;4944048;29;20126;-63
2022/09/03 01:14:10;;;;;;;3.90;3.60;;;;;;;;;;4942939;29;20053;-63
2022/09/03 01:16:41;;;;;;;3.63;3.42;;;;;;;;;;4944347;29;20088;-63
2022/09/03 01:19:27;;;;;;;3.80;3.53;;;;;;;;;;4943470;29;20509;-63
2022/09/03 01:21:59;;;;;;;4.00;3.40;;;;;;;;;;4943947;29;20102;-63
2022/09/03 01:24:33;;;;;;;6.30;3.88;;;;;;;;;;4943150;29;20027;-63
2022/09/03 01:27:06;;;;;;;6.10;4.25;;;;;;;;;;4943422;29;20089;-63
2022/09/03 01:29:42;;;;;;;4.25;3.90;;;;;;;;;;4942676;29;20497;-63
2022/09/03 01:32:14;;;;;;;3.70;3.47;;;;;;;;;;4955683;28;20040;-63
2022/09/03 01:34:42;;;;;;;4.15;3.38;;;;;;;;;;5032985;28;20612;-63
2022/09/03 01:37:18;;;;;;;4.15;3.50;;;;;;;;;;5032766;28;20115;-63
2022/09/03 01:40:02;;;;;;;4.20;3.80;;;;;;;;;;5032987;28;20029;-63
2022/09/03 01:42:36;;;;;;;3.85;3.55;;;;;;;;;;5032079;28;20068;-63
2022/09/03 01:45:21;;;;;;;4.55;3.55;;;;;;;;;;5031104;28;20116;-64
2022/09/03 01:47:50;;;;;;;4.10;3.58;;;;;;;;;;5032487;28;20697;-64
2022/09/03 01:50:18;;;;;;;4.47;3.67;;;;;;;;;;5033742;28;20018;-63
2022/09/03 01:52:49;;;;;;;4.05;3.63;;;;;;;;;;5031537;28;20025;-63
2022/09/03 01:55:23;;;;;;;3.95;3.50;;;;;;;;;;5031988;28;20017;-63
2022/09/03 01:58:01;;;;;;;4.10;3.80;;;;;;;;;;5031817;28;20633;-63
2022/09/03 02:00:29;;;;;;;4.07;3.67;;;;;;;;;;5028097;28;20025;-63
2022/09/03 02:02:54;;;;;;;3.42;3.13;;;;;;;;;;5031939;28;20403;-63
2022/09/03 02:05:24;;;;;;;4.20;3.83;;;;;;;;;;5030482;28;20034;-63
2022/09/03 02:07:53;;;;;;;4.72;4.05;;;;;;;;;;5032068;28;20314;-63
2022/09/03 02:10:20;;;;;;;4.47;4.05;;;;;;;;;;5027249;28;20032;-64
2022/09/03 02:12:48;;;;;;;5.82;3.63;;;;;;;;;;5028443;28;20461;-61
2022/09/03 02:15:15;;;;;;;6.13;3.85;;;;;;;;;;5032152;28;20136;-62
2022/09/03 02:17:41;;;;;;;4.68;3.90;;;;;;;;;;5031148;28;20116;-62
2022/09/03 02:20:10;;;;;;;5.32;4.05;;;;;;;;;;5033041;28;20446;-63
2022/09/03 02:22:36;;;;;;;3.92;3.63;;;;;;;;;;5032981;28;20028;-64
2022/09/03 02:25:01;;;;;;;4.85;3.53;;;;;;;;;;5033468;28;20037;-64
2022/09/03 02:27:26;;;;;;;4.20;3.63;;;;;;;;;;5029711;28;20408;-64
2022/09/03 02:29:52;;;;;;;4.22;3.60;;;;;;;;;;5031198;28;20085;-64
2022/09/03 02:32:17;;;;;;;4.57;4.18;;;;;;;;;;5031690;28;20113;-64
2022/09/03 02:34:43;;;;;;;4.95;4.20;;;;;;;;;;5030717;28;20383;-63
2022/09/03 02:37:15;;;;;;;5.07;3.40;;;;;;;;;;5032617;28;20021;-64
2022/09/03 02:39:41;;;;;;;4.78;3.75;;;;;;;;;;5031252;28;20470;-64
2022/09/03 02:42:08;;;;;;;4.68;3.95;;;;;;;;;;5031793;28;20026;-63
2022/09/03 02:44:35;;;;;;;5.57;4.25;;;;;;;;;;5032380;28;20029;-64
2022/09/03 02:47:02;;;;;;;4.20;3.90;;;;;;;;;;5031236;28;20060;-64
2022/09/03 02:49:28;;;;;;;4.68;4.28;;;;;;;;;;5029472;28;20033;-63
2022/09/03 02:51:57;;;;;;;4.65;4.25;;;;;;;;;;5032513;28;20021;-63
2022/09/03 02:54:22;;;;;;;5.03;3.60;;;;;;;;;;5029671;28;20037;-64
2022/09/03 02:56:48;;;;;;;4.17;3.70;;;;;;;;;;5026581;28;20065;-63
2022/09/03 02:59:13;;;;;;;4.03;3.50;;;;;;;;;;5029694;28;20060;-63
2022/09/03 03:01:39;;;;;;;4.35;3.85;;;;;;;;;;5030179;28;20035;-63
2022/09/03 03:04:04;;;;;;;4.57;3.80;;;;;;;;;;5030059;28;20029;-64
2022/09/03 03:06:29;;;;;;;4.30;3.45;;;;;;;;;;5031126;28;20470;-63
2022/09/03 03:08:54;;;;;;;5.25;3.75;;;;;;;;;;5031339;28;20526;-64
2022/09/03 03:11:21;;;;;;;4.22;3.63;;;;;;;;;;5031361;28;20034;-64
2022/09/03 03:13:47;;;;;;;5.20;3.80;;;;;;;;;;5030912;28;20519;-63
2022/09/03 03:16:13;;;;;;;6.43;4.10;;;;;;;;;;5030998;28;20029;-63
2022/09/03 03:18:38;;;;;;;8.13;3.85;;;;;;;;;;5031267;28;20064;-64
2022/09/03 03:21:07;;;;;;;5.13;4.15;;;;;;;;;;5030555;28;20123;-63
2022/09/03 03:23:34;;;;;;;7.60;3.90;;;;;;;;;;5030165;28;20021;-63
2022/09/03 03:26:00;;;;;;;4.13;3.60;;;;;;;;;;5030810;28;20076;-63
2022/09/03 03:28:25;;;;;;;4.10;3.70;;;;;;;;;;5029994;28;20068;-63
2022/09/03 03:30:51;;;;;;;5.25;4.13;;;;;;;;;;5031062;28;20630;-63
2022/09/03 03:33:16;;;;;;;3.42;3.22;;;;;;;;;;5029526;28;20429;-63
2022/09/03 03:35:42;;;;;;;4.63;4.25;;;;;;;;;;5031971;28;20025;-63
2022/09/03 03:38:07;;;;;;;3.92;3.63;;;;;;;;;;5032149;28;20151;-64
2022/09/03 03:40:33;;;;;;;4.80;4.32;;;;;;;;;;5029818;28;20371;-63
2022/09/03 03:42:58;;;;;;;4.50;3.58;;;;;;;;;;5030241;28;20075;-64
2022/09/03 03:45:24;;;;;;;4.07;3.72;;;;;;;;;;5028378;28;20095;-63
2022/09/03 03:47:49;;;;;;;6.28;5.38;;;;;;;;;;5030040;28;20495;-64
2022/09/03 03:50:15;;;;;;;4.78;4.38;;;;;;;;;;5029811;28;20446;-63
2022/09/03 03:52:40;;;;;;;4.60;4.20;;;;;;;;;;5030252;28;20100;-63
2022/09/03 03:55:06;;;;;;;4.75;4.32;;;;;;;;;;5029482;28;20029;-63
2022/09/03 03:57:31;;;;;;;4.70;4.30;;;;;;;;;;5029897;28;20478;-63
2022/09/03 03:59:56;;;;;;;4.68;4.20;;;;;;;;;;5030417;28;20380;-63
2022/09/03 04:02:22;;;;;;;6.47;4.65;;;;;;;;;;5031134;28;20060;-63
2022/09/03 04:04:47;;;;;;;4.93;4.43;;;;;;;;;;5030325;28;20531;-63
2022/09/03 04:07:12;;;;;;;4.68;4.28;;;;;;;;;;5031318;28;20115;-63
2022/09/03 04:09:38;;;;;;;3.95;3.65;;;;;;;;;;5029566;28;20113;-62
2022/09/03 04:12:06;;;;;;;4.72;3.88;;;;;;;;;;5029938;28;20561;-63
2022/09/03 04:14:31;;;;;;;5.32;4.22;;;;;;;;;;5025749;28;20156;-64
2022/09/03 04:16:56;;;;;;;5.15;4.20;;;;;;;;;;5026718;28;20096;-65
2022/09/03 04:19:23;;;;;;;4.85;4.05;;;;;;;;;;5029752;28;20099;-63
2022/09/03 04:21:48;;;;;;;4.60;4.20;;;;;;;;;;5030882;28;20441;-62
2022/09/03 04:24:13;;;;;;;5.70;4.45;;;;;;;;;;5032856;28;20056;-63
2022/09/03 04:26:39;;;;;;;7.20;5.57;;;;;;;;;;5030375;28;20053;-63
2022/09/03 04:29:06;;;;;;;4.20;3.90;;;;;;;;;;5029288;28;20028;-63
2022/09/03 04:31:31;;;;;;;4.82;4.32;;;;;;;;;;5031101;28;20037;-63
2022/09/03 04:33:56;;;;;;;5.23;4.13;;;;;;;;;;5032266;28;20021;-63
2022/09/03 04:36:23;;;;;;;5.35;4.20;;;;;;;;;;5033913;28;20033;-62
2022/09/03 04:38:49;;;;;;;4.45;4.13;;;;;;;;;;5034094;28;20505;-62
2022/09/03 04:41:16;;;;;;;5.10;4.50;;;;;;;;;;5036113;28;20103;-62
2022/09/03 04:43:42;;;;;;;4.82;3.90;;;;;;;;;;5033463;28;20051;-62
2022/09/03 04:46:08;;;;;;;4.07;3.78;;;;;;;;;;5032939;28;20029;-62
2022/09/03 04:48:35;;;;;;;6.47;4.35;;;;;;;;;;5033276;28;20478;-63
2022/09/03 04:51:04;;;;;;;7.22;4.65;;;;;;;;;;5033655;28;20072;-62
2022/09/03 04:53:33;;;;;;;5.60;4.32;;;;;;;;;;5034202;28;20017;-62
2022/09/03 04:55:59;;;;;;;5.97;5.28;;;;;;;;;;5033217;28;20043;-62
2022/09/03 04:58:24;;;;;;;4.97;4.30;;;;;;;;;;5034177;28;20029;-62
2022/09/03 05:00:49;;;;;;;4.57;4.18;;;;;;;;;;5032796;28;20065;-62
2022/09/03 05:03:14;;;;;;;5.05;4.18;;;;;;;;;;5034641;28;20071;-61
2022/09/03 05:05:40;;;;;;;6.68;4.22;;;;;;;;;;5033090;28;20044;-62
2022/09/03 05:08:06;;;;;;;4.90;4.07;;;;;;;;;;5033542;28;20041;-62
2022/09/03 05:10:31;;;;;;;4.68;4.20;;;;;;;;;;5034448;28;20029;-61
2022/09/03 05:12:57;;;;;;;4.88;4.47;;;;;;;;;;5033504;28;20357;-62
2022/09/03 05:15:23;;;;;;;4.55;4.10;;;;;;;;;;5034082;28;20027;-62
2022/09/03 05:17:51;;;;;;;5.85;4.20;;;;;;;;;;5030928;28;20402;-62
2022/09/03 05:20:16;;;;;;;4.90;3.92;;;;;;;;;;5030130;28;20036;-62
2022/09/03 05:22:42;;;;;;;5.82;4.18;;;;;;;;;;5033446;28;20029;-63
2022/09/03 05:25:07;;;;;;;4.57;4.10;;;;;;;;;;5031515;28;20029;-63
2022/09/03 05:27:32;;;;;;;5.55;4.20;;;;;;;;;;5032434;28;20454;-63
2022/09/03 05:29:58;;;;;;;6.07;5.55;;;;;;;;;;5032369;28;20086;-62
2022/09/03 05:32:24;;;;;;;3.70;3.40;;;;;;;;;;5031132;28;20032;-63
2022/09/03 05:34:49;;;;;;;5.78;3.97;;;;;;;;;;5028880;28;20063;-63
2022/09/03 05:37:14;;;;;;;4.40;3.78;;;;;;;;;;5033708;28;20119;-63
2022/09/03 05:39:39;;;;;;;4.72;4.20;;;;;;;;;;5032380;28;20032;-63
2022/09/03 05:42:05;;;;;;;4.80;3.83;;;;;;;;;;5032842;28;20148;-63
2022/09/03 05:44:30;;;;;;;4.97;4.15;;;;;;;;;;5033436;28;20041;-64
2022/09/03 05:46:56;;;;;;;5.40;4.32;;;;;;;;;;5028936;28;20483;-63
2022/09/03 05:49:21;;;;;;;14.68;4.80;;;;;;;;;;5030209;28;20025;-63
2022/09/03 05:51:46;;;;;;;4.53;4.13;;;;;;;;;;5032740;28;20467;-62
2022/09/03 05:54:12;;;;;;;4.47;4.10;;;;;;;;;;5032738;28;20030;-61
2022/09/03 05:56:38;;;;;;;6.57;4.03;;;;;;;;;;5032108;28;20029;-64
2022/09/03 05:59:07;;;;;;;5.60;4.50;;;;;;;;;;5028839;28;20028;-63
2022/09/03 06:01:43;;;;;;;4.40;4.00;;;;;;;;;;5028684;28;20025;-64
2022/09/03 06:04:12;;;;;;;6.75;4.15;;;;;;;;;;5030798;28;20065;-65
2022/09/03 06:06:39;;;;;;;4.10;3.75;;;;;;;;;;5026761;28;20025;-64
2022/09/03 06:09:09;;;;;;;5.97;4.45;;;;;;;;;;5030513;28;20064;-64
2022/09/03 06:11:36;;;;;;;7.70;4.65;;;;;;;;;;5028867;28;20190;-64
2022/09/03 06:14:09;;;;;;;5.38;3.50;;;;;;;;;;5030563;28;20021;-65
2022/09/03 06:16:36;;;;;;;5.60;5.05;;;;;;;;;;5033275;28;20139;-64
2022/09/03 06:19:02;;;;;;;6.15;3.92;;;;;;;;;;5033355;28;20028;-64
2022/09/03 06:21:28;;;;;;;4.68;4.18;;;;;;;;;;5027396;28;20025;-66
2022/09/03 06:23:56;;;;;;;8.05;3.72;;;;;;;;;;5028100;28;20033;-61
2022/09/03 06:26:23;;;;;;;3.78;3.45;;;;;;;;;;5031962;28;20207;-64
2022/09/03 06:28:48;;;;;;;4.43;3.55;;;;;;;;;;5029317;28;20025;-63
2022/09/03 06:31:15;;;;;;;4.63;3.70;;;;;;;;;;5029098;28;20049;-63
2022/09/03 06:33:41;;;;;;;4.70;4.30;;;;;;;;;;5030597;28;20026;-63
2022/09/03 06:36:07;;;;;;;3.85;3.55;;;;;;;;;;5027532;28;20142;-64
2022/09/03 06:38:36;;;;;;;3.92;3.53;;;;;;;;;;5030372;28;20099;-64
2022/09/03 06:41:06;;;;;;;4.10;3.75;;;;;;;;;;5031696;28;20025;-64
2022/09/03 06:43:36;;;;;;;4.80;4.13;;;;;;;;;;5040820;28;20174;-63
2022/09/03 06:46:03;;;;;;;5.13;4.72;;;;;;;;;;5032637;28;20877;-63
2022/09/03 06:48:29;;;;;;;3.80;3.50;;;;;;;;;;5031938;28;20239;-63
2022/09/03 06:50:58;;;;;;;6.28;5.43;;;;;;;;;;5031505;28;20033;-64
2022/09/03 06:53:27;;;;;;;5.13;4.63;;;;;;;;;;5031713;28;20110;-63
2022/09/03 06:55:56;;;;;;;4.60;4.07;;;;;;;;;;5029169;28;20025;-63
2022/09/03 06:58:22;;;;;;;4.55;4.20;;;;;;;;;;5034564;28;20106;-63
2022/09/03 07:00:48;;;;;;;4.15;3.85;;;;;;;;;;5027424;28;20480;-63
2022/09/03 07:03:13;;;;;;;4.20;3.90;;;;;;;;;;5031156;28;20025;-63
2022/09/03 07:05:39;;;;;;;4.25;3.95;;;;;;;;;;5028674;28;20056;-63
2022/09/03 07:08:04;;;;;;;6.22;4.45;;;;;;;;;;5027000;28;20033;-65
2022/09/03 07:10:29;;;;;;;6.90;3.95;;;;;;;;;;5031490;28;20029;-63
2022/09/03 07:12:57;;;;;;;5.10;3.88;;;;;;;;;;5031939;28;20025;-63
2022/09/03 07:15:22;;;;;;;3.72;3.45;;;;;;;;;;5029545;28;20561;-66
2022/09/03 07:17:48;;;;;;;7.43;3.88;;;;;;;;;;5027812;28;20025;-64
2022/09/03 07:20:14;;;;;;;5.35;3.72;;;;;;;;;;5029439;28;20454;-65
2022/09/03 07:22:39;;;;;;;4.13;3.80;;;;;;;;;;5032421;28;20029;-65
2022/09/03 07:25:05;;;;;;;6.00;4.53;;;;;;;;;;5039109;28;20033;-66
2022/09/03 07:27:30;;;;;;;4.80;3.67;;;;;;;;;;5026138;28;20412;-65
2022/09/03 07:29:55;;;;;;;3.90;3.60;;;;;;;;;;5024525;28;20422;-65
2022/09/03 07:32:21;;;;;;;4.05;3.65;;;;;;;;;;5030971;28;20381;-65
2022/09/03 07:34:46;;;;;;;4.38;4.03;;;;;;;;;;5031378;28;20036;-65
2022/09/03 07:37:11;;;;;;;4.72;4.30;;;;;;;;;;5031053;28;20021;-64
2022/09/03 07:39:37;;;;;;;4.30;3.97;;;;;;;;;;5029963;28;20033;-65
2022/09/03 07:42:02;;;;;;;4.05;3.65;;;;;;;;;;5031338;28;20361;-66
2022/09/03 07:44:28;;;;;;;4.55;4.15;;;;;;;;;;5029034;28;20032;-65
2022/09/03 07:46:54;;;;;;;5.72;3.83;;;;;;;;;;5026679;28;20037;-65
2022/09/03 07:49:20;;;;;;;5.03;3.30;;;;;;;;;;5029716;28;20025;-65
2022/09/03 07:51:51;;;;;;;4.88;3.38;;;;;;;;;;5030404;28;20018;-65
2022/09/03 07:54:16;;;;;;;5.13;4.10;;;;;;;;;;5029055;28;20124;-64
2022/09/03 07:56:41;;;;;;;7.65;4.28;;;;;;;;;;5030100;28;20037;-65
2022/09/03 07:59:07;;;;;;;5.82;4.32;;;;;;;;;;5026352;28;20454;-66
2022/09/03 08:01:33;;;;;;;4.50;4.10;;;;;;;;;;5027144;28;20014;-67
2022/09/03 08:03:59;;;;;;;3.88;3.60;;;;;;;;;;5032959;28;20034;-65
2022/09/03 08:06:25;;;;;;;5.00;4.57;;;;;;;;;;5029108;28;20024;-65
2022/09/03 08:08:57;;;;;;;6.10;3.75;;;;;;;;;;5030595;28;20040;-66
2022/09/03 08:11:22;;;;;;;7.70;4.35;;;;;;;;;;5035513;28;20032;-65
2022/09/03 08:14:08;;;;;;;5.18;4.65;;;;;;;;;;5031492;28;20475;-66
2022/09/03 08:16:34;;;;;;;4.22;3.40;;;;;;;;;;5031833;28;20033;-64
2022/09/03 08:18:59;;;;;;;5.68;4.22;;;;;;;;;;5034375;28;20028;-66
2022/09/03 08:21:25;;;;;;;4.55;4.15;;;;;;;;;;5034037;28;20434;-65
2022/09/03 08:23:52;;;;;;;6.65;4.18;;;;;;;;;;5035188;28;20471;-65
2022/09/03 08:26:18;;;;;;;4.80;4.25;;;;;;;;;;5034594;28;20051;-66
2022/09/03 08:28:43;;;;;;;3.67;3.25;;;;;;;;;;5032192;28;20025;-65
2022/09/03 08:31:10;;;;;;;6.28;4.20;;;;;;;;;;5031358;28;20013;-65
2022/09/03 08:33:41;;;;;;;5.20;4.47;;;;;;;;;;5031124;28;20060;-66
2022/09/03 08:36:08;;;;;;;9.23;4.13;;;;;;;;;;5033789;28;20029;-57
2022/09/03 08:38:34;;;;;;;4.60;4.15;;;;;;;;;;5031445;28;20033;-59
2022/09/03 08:41:03;;;;;;;6.00;3.42;;;;;;;;;;5030177;28;20021;-59
2022/09/03 08:43:28;;;;;;;7.75;4.25;;;;;;;;;;5031857;28;20437;-60
2022/09/03 08:45:54;;;;;;;4.10;3.80;;;;;;;;;;5033463;28;20558;-58
2022/09/03 08:48:21;;;;;;;6.40;3.58;;;;;;;;;;5029389;28;20137;-65
2022/09/03 08:50:50;;;;;;;4.53;4.05;;;;;;;;;;5029236;28;20060;-64
2022/09/03 08:53:15;;;;;;;3.85;3.53;;;;;;;;;;5029898;28;20041;-64
2022/09/03 08:56:02;;;;;;;4.75;3.55;;;;;;;;;;5031361;28;20120;-64
2022/09/03 08:58:31;;;;;;;4.97;3.42;;;;;;;;;;5031105;28;20371;-64
2022/09/03 09:01:00;;;;;;;4.97;3.53;;;;;;;;;;5032642;28;20375;-62
2022/09/03 09:03:37;;;;;;;4.75;3.45;;;;;;;;;;5032495;28;20124;-66
2022/09/03 09:06:16;;;;;;;4.47;4.18;;;;;;;;;;5034087;28;20029;-66
2022/09/03 09:09:14;;;;;;;5.57;3.15;;;;;;;;;;5034955;28;20532;-66
2022/09/03 09:11:47;;;;;;;5.63;3.40;;;;;;;;;;4986166;28;20082;-67
2022/09/03 09:14:12;;;;;;;4.00;3.47;;;;;;;;;;5031039;28;20464;-67
2022/09/03 09:16:41;;;;;;;4.00;3.58;;;;;;;;;;5030913;28;20044;-64
2022/09/03 09:19:10;;;;;;;4.43;3.40;;;;;;;;;;5032277;28;20463;-65
2022/09/03 09:21:55;;;;;;;3.33;2.83;;;;;;;;;;5033301;28;20029;-65
2022/09/03 09:24:22;;;;;;;6.28;3.38;;;;;;;;;;5004155;28;20039;-69
2022/09/03 09:26:48;;;;;;;6.65;3.13;;;;;;;;;;5031275;28;20050;-68
2022/09/03 09:29:14;;;;;;;3.53;3.22;;;;;;;;;;5030428;28;20486;-67
2022/09/03 09:31:40;;;;;;;5.07;3.38;;;;;;;;;;5035232;28;20490;-68
2022/09/03 09:34:06;;;;;;;5.18;3.28;;;;;;;;;;5033723;28;20091;-67
2022/09/03 09:36:36;;;;;;;6.28;2.85;;;;;;;;;;5030662;28;20487;-68
2022/09/03 09:39:09;;;;;;;4.65;3.60;;;;;;;;;;5030598;28;20025;-66
2022/09/03 09:41:34;;;;;;;3.63;3.28;;;;;;;;;;5034162;28;20029;-68
2022/09/03 09:44:01;;;;;;;4.75;3.28;;;;;;;;;;5029964;28;20029;-67
2022/09/03 09:46:31;;;;;;;3.83;2.90;;;;;;;;;;5032624;28;20032;-66
2022/09/03 09:48:57;;;;;;;3.72;3.42;;;;;;;;;;5030502;28;20025;-67
2022/09/03 09:51:30;;;;;;;6.72;3.40;;;;;;;;;;5032688;28;20372;-66
2022/09/03 09:54:02;;;;;;;4.22;2.60;;;;;;;;;;5034678;28;20021;-69
2022/09/03 09:56:28;;;;;;;3.10;2.83;;;;;;;;;;5034038;28;20079;-69
2022/09/03 09:59:14;;;;;;;5.30;3.30;;;;;;;;;;5033084;28;20391;-65
2022/09/03 10:01:43;;;;;;;5.78;3.20;;;;;;;;;;5033041;28;20036;-65
2022/09/03 10:04:29;;;;;;;3.45;3.22;;;;;;;;;;5032867;28;20025;-64
2022/09/03 10:06:57;;;;;;;5.15;3.65;;;;;;;;;;5029660;28;20487;-63
2022/09/03 10:09:24;;;;;;;5.82;3.35;;;;;;;;;;5030518;28;20075;-64
2022/09/03 10:12:09;;;;;;;3.63;3.33;;;;;;;;;;5030660;28;20464;-64
2022/09/03 10:14:37;;;;;;;4.18;3.63;;;;;;;;;;5032717;28;20020;-64
2022/09/03 10:17:06;;;;;;;4.13;3.75;;;;;;;;;;5033069;28;20040;-64
2022/09/03 10:20:26;;;;;;;7.70;4.40;;;;;;;;;;5031684;28;20082;-64
2022/09/03 10:22:41;;;;;;;5.60;3.58;;;;;;;;;;5030543;28;20033;-64
2022/09/03 10:25:07;;;;;;;3.67;3.33;;;;;;;;;;5037606;28;20655;-64
2022/09/03 10:27:34;;;;;;;8.40;3.38;;;;;;;;;;5030092;28;20050;-63
2022/09/03 10:29:59;;;;;;;3.45;3.15;;;;;;;;;;5038010;28;20706;-63
2022/09/03 10:32:29;;;;;;;5.50;3.65;;;;;;;;;;5029892;28;20241;-64
2022/09/03 10:34:58;;;;;;;3.38;3.15;;;;;;;;;;5028763;28;20159;-62
2022/09/03 10:37:37;;;;;;;3.60;3.30;;;;;;;;;;5029450;28;20025;-62
2022/09/03 10:40:17;;;;;;;3.53;3.00;;;;;;;;;;5027893;28;20817;-61
2022/09/03 10:42:44;;;;;;;3.42;3.22;;;;;;;;;;5031264;28;20467;-60
2022/09/03 10:45:16;;;;;;;6.60;3.78;;;;;;;;;;5028839;28;20021;-61
2022/09/03 10:48:01;;;;;;;4.85;3.80;;;;;;;;;;5029654;28;20449;-61
2022/09/03 10:50:38;;;;;;;3.45;3.15;;;;;;;;;;5030428;28;20098;-61
2022/09/03 10:53:12;;;;;;;5.63;3.13;;;;;;;;;;5033031;28;20029;-59
2022/09/03 10:55:54;;;;;;;3.33;3.13;;;;;;;;;;5032524;28;20020;-63
2022/09/03 10:58:22;;;;;;;3.78;3.53;;;;;;;;;;5032190;28;20507;-59
2022/09/03 11:01:00;;;;;;;4.28;3.45;;;;;;;;;;5028139;28;20048;-59
2022/09/03 11:03:44;;;;;;;3.53;3.30;;;;;;;;;;5028238;28;20104;-59
2022/09/03 11:06:15;;;;;;;4.15;3.25;;;;;;;;;;5027936;28;20120;-59
2022/09/03 11:08:43;;;;;;;3.42;3.13;;;;;;;;;;5032846;28;20049;-59
2022/09/03 11:11:08;;;;;;;5.38;3.15;;;;;;;;;;5031010;28;20032;-60
2022/09/03 11:13:37;;;;;;;3.78;2.83;;;;;;;;;;5030892;28;20021;-59
2022/09/03 11:16:29;;;;;;;4.25;3.10;;;;;;;;;;5027915;28;20105;-60
2022/09/03 11:18:57;;;;;;;3.03;2.83;;;;;;;;;;4968299;28;20109;-59
2022/09/03 11:21:26;;;;;;;3.20;2.90;;;;;;;;;;4969284;28;20611;-59
2022/09/03 11:24:12;;;;;;;3.75;3.42;;;;;;;;;;4970203;28;20557;-58
2022/09/03 11:26:39;;;;;;;3.25;3.05;;;;;;;;;;4968529;28;20051;-60
2022/09/03 11:29:09;;;;;;;2.95;2.75;;;;;;;;;;4968278;28;20564;-60
2022/09/03 11:31:34;;;;;;;3.38;3.10;;;;;;;;;;4965974;28;20026;-60
2022/09/03 11:34:05;;;;;;;3.67;3.33;;;;;;;;;;4968134;28;20636;-62
2022/09/03 11:36:32;;;;;;;3.45;3.25;;;;;;;;;;4951696;28;20510;-61
2022/09/03 11:38:58;;;;;;;3.47;3.20;;;;;;;;;;4967135;28;20178;-63
2022/09/03 11:41:25;;;;;;;4.95;3.05;;;;;;;;;;4970046;28;20089;-64
2022/09/03 11:43:51;;;;;;;3.78;3.00;;;;;;;;;;4968594;28;20703;-63
2022/09/03 11:46:20;;;;;;;3.42;3.10;;;;;;;;;;4970325;28;20061;-63
2022/09/03 11:48:46;;;;;;;4.32;3.10;;;;;;;;;;4973185;28;20046;-63
2022/09/03 11:51:24;;;;;;;3.22;2.92;;;;;;;;;;4970459;28;20455;-62
2022/09/03 11:53:56;;;;;;;3.40;3.20;;;;;;;;;;4960171;28;20027;-62
2022/09/03 11:56:21;;;;;;;3.55;3.35;;;;;;;;;;5016662;28;20037;-62
2022/09/03 11:58:57;;;;;;;3.47;3.22;;;;;;;;;;5030999;28;20048;-64
2022/09/03 12:01:27;;;;;;;3.80;3.42;;;;;;;;;;5029824;28;20034;-58
2022/09/03 12:03:53;;;;;;;3.63;3.33;;;;;;;;;;5033612;28;20024;-58
2022/09/03 12:06:27;;;;;;;3.70;3.50;;;;;;;;;;5036000;28;20048;-58
2022/09/03 12:08:55;;;;;;;3.40;3.20;;;;;;;;;;5031532;28;20052;-58
2022/09/03 12:11:39;;;;;;;3.30;3.00;;;;;;;;;;5028498;28;20037;-60
2022/09/03 12:14:12;;;;;;;3.88;3.22;;;;;;;;;;5031291;28;20559;-61
2022/09/03 12:16:37;;;;;;;3.30;3.10;;;;;;;;;;5030471;28;20024;-60
2022/09/03 12:19:06;;;;;;;3.85;3.55;;;;;;;;;;5034219;28;20025;-62
2022/09/03 12:21:36;;;;;;;4.03;3.75;;;;;;;;;;5035944;28;20028;-62
2022/09/03 12:24:02;;;;;;;5.43;3.13;;;;;;;;;;5035671;28;20059;-60
2022/09/03 12:26:27;;;;;;;3.97;3.15;;;;;;;;;;5034507;28;20565;-62
2022/09/03 12:28:54;;;;;;;3.75;3.35;;;;;;;;;;5034165;28;20084;-61
2022/09/03 12:31:24;;;;;;;4.50;4.20;;;;;;;;;;5034327;28;20021;-62
2022/09/03 12:33:53;;;;;;;5.57;5.07;;;;;;;;;;5031010;28;20021;-61
2022/09/03 12:36:19;;;;;;;3.40;3.08;;;;;;;;;;5027782;28;20056;-61
2022/09/03 12:38:46;;;;;;;3.47;3.17;;;;;;;;;;5028959;28;20384;-63
2022/09/03 12:41:19;;;;;;;3.20;3.00;;;;;;;;;;5034947;28;20535;-61
2022/09/03 12:43:50;;;;;;;4.10;3.35;;;;;;;;;;5030701;28;20035;-63
2022/09/03 12:46:15;;;;;;;3.70;3.50;;;;;;;;;;5031792;28;20344;-61
2022/09/03 12:48:46;;;;;;;4.18;3.88;;;;;;;;;;5033858;28;20480;-61
2022/09/03 12:51:11;;;;;;;4.20;3.88;;;;;;;;;;5034173;28;20037;-62
2022/09/03 12:53:36;;;;;;;3.83;3.53;;;;;;;;;;5035406;28;20025;-60
2022/09/03 12:56:02;;;;;;;3.38;3.15;;;;;;;;;;5034112;28;20025;-64
2022/09/03 12:58:34;;;;;;;3.75;3.45;;;;;;;;;;5032820;28;20030;-62
2022/09/03 13:01:02;;;;;;;4.43;3.78;;;;;;;;;;5030428;28;20032;-62
2022/09/03 13:03:34;;;;;;;4.00;3.42;;;;;;;;;;5033279;28;20156;-61
2022/09/03 13:06:05;;;;;;;3.60;3.42;;;;;;;;;;5035176;28;20451;-62
2022/09/03 13:08:33;;;;;;;4.00;3.78;;;;;;;;;;5060104;28;20140;-53
2022/09/03 13:11:03;;;;;;;4.13;3.85;;;;;;;;;;5030384;28;20034;-60
2022/09/03 13:13:30;;;;;;;3.83;3.55;;;;;;;;;;5030788;28;20033;-61
2022/09/03 13:16:08;;;;;;;4.97;4.13;;;;;;;;;;5030639;28;20026;-61
2022/09/03 13:18:51;;;;;;;3.25;2.97;;;;;;;;;;5030300;28;20089;-60
2022/09/03 13:21:25;;;;;;;4.43;4.13;;;;;;;;;;5029599;28;20072;-59
2022/09/03 13:23:53;;;;;;;3.50;3.20;;;;;;;;;;5030244;28;20029;-60
2022/09/03 13:26:28;;;;;;;4.25;3.85;;;;;;;;;;5031506;28;20053;-59
2022/09/03 13:28:57;;;;;;;3.72;3.42;;;;;;;;;;5031642;28;20824;-60
2022/09/03 13:31:28;;;;;;;7.93;4.05;;;;;;;;;;5030879;28;20899;-59
2022/09/03 13:34:19;;;;;;;4.38;3.97;;;;;;;;;;5029151;28;20040;-63
2022/09/03 13:36:55;;;;;;;4.20;4.00;;;;;;;;;;4958289;28;20039;-62
2022/09/03 13:39:27;;;;;;;3.60;3.40;;;;;;;;;;4963283;28;20031;-63
2022/09/03 13:42:10;;;;;;;3.25;3.08;;;;;;;;;;4963276;28;20054;-62
2022/09/03 13:44:46;;;;;;;3.45;3.15;;;;;;;;;;4963776;28;20101;-63
2022/09/03 13:47:17;;;;;;;4.45;4.05;;;;;;;;;;4963097;28;20134;-63
2022/09/03 13:52:33;;;;;;;3.53;3.22;;;;;;;;;;4958741;28;20770;-63
2022/09/03 13:55:07;;;;;;;5.82;4.00;;;;;;;;;;4944250;28;20172;-63
2022/09/03 13:57:44;;;;;;;3.40;3.20;;;;;;;;;;4962434;28;20061;-63
2022/09/03 14:00:11;;;;;;;9.88;4.13;;;;;;;;;;4962795;28;20480;-60
2022/09/03 14:02:39;;;;;;;4.10;3.25;;;;;;;;;;4962215;28;20026;-61
2022/09/03 14:05:14;;;;;;;3.80;3.45;;;;;;;;;;4962694;28;20929;-60
2022/09/03 14:07:51;;;;;;;4.45;3.75;;;;;;;;;;4960102;28;20050;-59
2022/09/03 14:10:34;;;;;;;3.85;3.65;;;;;;;;;;4962551;28;20027;-62
2022/09/03 14:13:03;;;;;;;5.05;3.75;;;;;;;;;;4978989;28;20045;-61
2022/09/03 14:15:31;;;;;;;7.28;3.75;;;;;;;;;;5028798;28;20067;-61
2022/09/03 14:18:12;;;;;;;3.75;3.35;;;;;;;;;;5031436;28;20028;-61
2022/09/03 14:20:45;;;;;;;4.07;3.80;;;;;;;;;;5027565;28;20026;-64
2022/09/03 14:23:16;;;;;;;3.83;3.53;;;;;;;;;;5030012;28;20428;-62
2022/09/03 14:25:50;;;;;;;7.57;4.60;;;;;;;;;;5031722;28;20546;-61
2022/09/03 14:28:18;;;;;;;5.60;3.53;;;;;;;;;;5031894;28;20035;-60
2022/09/03 14:30:52;;;;;;;4.20;3.78;;;;;;;;;;5029313;28;20033;-62
2022/09/03 14:33:33;;;;;;;3.50;3.20;;;;;;;;;;5027272;28;20021;-62
2022/09/03 14:36:13;;;;;;;3.47;3.20;;;;;;;;;;5027828;28;20028;-62
2022/09/03 14:38:45;;;;;;;4.20;3.78;;;;;;;;;;5031136;28;20033;-62
2022/09/03 14:41:15;;;;;;;4.47;4.07;;;;;;;;;;5030653;28;20183;-62
2022/09/03 14:43:53;;;;;;;3.80;3.50;;;;;;;;;;5029063;28;20029;-62
2022/09/03 14:46:18;;;;;;;4.18;3.97;;;;;;;;;;5028308;28;20170;-61
2022/09/03 14:48:55;;;;;;;4.55;3.63;;;;;;;;;;5030834;28;20498;-63
2022/09/03 14:51:38;;;;;;;4.40;4.00;;;;;;;;;;5032652;28;20048;-61
2022/09/03 14:54:22;;;;;;;5.05;3.35;;;;;;;;;;5028227;28;20517;-62
2022/09/03 14:57:02;;;;;;;4.60;4.30;;;;;;;;;;5029843;28;20021;-62
2022/09/03 14:59:40;;;;;;;3.88;3.58;;;;;;;;;;5031290;28;20039;-62
2022/09/03 15:02:24;;;;;;;4.72;3.80;;;;;;;;;;5029932;28;20025;-61